Syosyun — JD2406 — position and weather

sailwx.info

Track history (hours):
 
Tides and Currents Weather Stations Pressure Air Temp Water Temp Dewpoint Dewpoint Depression Visibility Wind Speed Wind Dir Waves Ship Positions

Syosyun

Last reported at 2016-Jun-26 11:31 UTC. Time now 2016-Jun-26 17:23 UTC.
Position N 34°54' E 139°57'.

Length 74 m; draft 3.5 m.

Type: Cargo ship. MMSI: 431000201.

Date/timePositionNaut miles runAvg speedWind from/ knotsBaromVisibWave heightAir tempDewpointWater temp
2016-Jun-26 11:31N 34°54' E 139°57'1410.6
2016-Jun-26 10:10N 35°01' E 140°12'2010.1
2016-Jun-26 08:08N 35°15' E 140°30'811.1
2016-Jun-26 07:25N 35°23' E 140°34'1011.2
2016-Jun-26 06:33N 35°30' E 140°42'1111.2
2016-Jun-26 05:33N 35°38' E 140°51'14 0.3
2016-Jun-24 09:29N 35°26' E 140°42'1311.9
2016-Jun-24 08:23N 35°16' E 140°32'41 8.5
2016-Jun-24 03:33N 35°03' E 139°45'1312.8
2016-Jun-24 02:33N 35°15' E 139°46'1212.6
2016-Jun-24 01:33N 35°27' E 139°41'1 1.1
2016-Jun-24 00:31N 35°27' E 139°40'0 0.0
2016-Jun-23 23:31N 35°27' E 139°40'0 0.0
2016-Jun-23 22:31N 35°27' E 139°40'2 2.3
2016-Jun-23 21:32N 35°26' E 139°42'0 0.0
2016-Jun-23 20:32N 35°26' E 139°42'0 0.1
2016-Jun-23 19:32N 35°26' E 139°42'0 0.0
2016-Jun-23 18:32N 35°26' E 139°42'0 0.1
2016-Jun-23 17:32N 35°26' E 139°42'0 0.0
2016-Jun-23 16:32N 35°26' E 139°42'0 0.0
2016-Jun-23 15:33N 35°26' E 139°42'10 9.6
2016-Jun-23 14:33N 35°17' E 139°46'1111.1
2016-Jun-23 13:33N 35°06' E 139°45'17 7.7
2016-Jun-23 11:22N 34°57' E 140°03'4311.2
2016-Jun-23 07:32N 35°26' E 140°41'2 0.1
2016-Jun-22 11:33N 35°28' E 140°43'1711.7
2016-Jun-22 10:08N 35°14' E 140°32'2111.5
2016-Jun-22 08:20N 35°00' E 140°13'1011.5
2016-Jun-22 07:28N 34°55' E 140°02'13 9.8
2016-Jun-22 06:09N 34°55' E 139°46'7 9.5
2016-Jun-22 05:28N 35°02' E 139°44'1011.4
2016-Jun-22 04:33N 35°12' E 139°46'1110.6
2016-Jun-22 03:33N 35°22' E 139°42'4 3.5
2016-Jun-22 02:31N 35°25' E 139°41'0 0.0
2016-Jun-22 01:31N 35°25' E 139°41'0 0.0
2016-Jun-22 00:31N 35°25' E 139°41'0 0.0
2016-Jun-21 23:31N 35°25' E 139°41'0 0.0
2016-Jun-21 22:31N 35°25' E 139°41'0 0.0
2016-Jun-21 21:31N 35°25' E 139°41'0 0.0
2016-Jun-21 20:31N 35°25' E 139°41'0 0.0
2016-Jun-21 19:31N 35°25' E 139°41'0 0.0
2016-Jun-21 18:31N 35°25' E 139°41'0 0.0
2016-Jun-21 17:31N 35°25' E 139°41'0 0.0
2016-Jun-21 16:31N 35°25' E 139°41'0 0.0
2016-Jun-21 15:31N 35°25' E 139°41'0 0.0
2016-Jun-21 14:31N 35°25' E 139°41'0 0.0
2016-Jun-21 13:31N 35°25' E 139°41'0 0.0
2016-Jun-21 12:31N 35°25' E 139°41'0 0.0
2016-Jun-21 11:31N 35°25' E 139°41'0 0.0
2016-Jun-21 10:33N 35°25' E 139°41'7 6.9
2016-Jun-21 09:34N 35°29' E 139°48'1211.7
2016-Jun-21 08:34N 35°33' E 140°02'4 4.4
2016-Jun-21 07:33N 35°33' E 140°07'0 0.0
2016-Jun-21 05:33N 35°33' E 140°07'0 0.0
2016-Jun-21 04:33N 35°33' E 140°07'0 0.0
2016-Jun-21 03:33N 35°33' E 140°07'0 0.0
2016-Jun-21 02:31N 35°33' E 140°07'0 0.0
2016-Jun-21 01:33N 35°33' E 140°07'0 0.0
2016-Jun-21 00:33N 35°33' E 140°07'0 0.0
2016-Jun-20 23:33N 35°33' E 140°07'0 0.0
2016-Jun-20 22:33N 35°33' E 140°07'0 0.0
2016-Jun-20 21:18N 35°33' E 140°07'0 0.0
2016-Jun-20 20:30N 35°33' E 140°07'0 0.0
2016-Jun-20 19:24N 35°33' E 140°07'0 0.0
2016-Jun-20 18:30N 35°33' E 140°07'0 0.0
2016-Jun-20 17:30N 35°33' E 140°07'0 0.0
2016-Jun-20 16:30N 35°33' E 140°07'0 0.0
2016-Jun-20 15:30N 35°33' E 140°07'0 0.0
2016-Jun-20 14:30N 35°33' E 140°07'0 0.0
2016-Jun-20 13:30N 35°33' E 140°07'0 0.0
2016-Jun-20 12:24N 35°33' E 140°07'0 0.0
2016-Jun-20 11:30N 35°33' E 140°07'0 0.0
2016-Jun-20 10:30N 35°33' E 140°07'0 0.0
2016-Jun-20 09:30N 35°33' E 140°07'0 0.0
2016-Jun-20 08:30N 35°33' E 140°07'0 0.0
2016-Jun-20 07:24N 35°33' E 140°07'0 0.0
2016-Jun-20 06:33N 35°33' E 140°07'9 9.2
2016-Jun-20 05:33N 35°30' E 139°56'1211.7
2016-Jun-20 04:33N 35°22' E 139°45'1211.6
2016-Jun-20 03:31N 35°10' E 139°47'  
Track history (hours):
 
Tides and Currents Weather Stations Pressure Air Temp Water Temp Dewpoint Dewpoint Depression Visibility Wind Speed Wind Dir Waves Ship Positions

Syosyun

Last reported at 2016-Jun-26 11:31 UTC. Time now 2016-Jun-26 17:23 UTC.
Position N 34°54' E 139°57'.

Length 74 m; draft 3.5 m.

Type: Cargo ship. MMSI: 431000201.

Date/timePositionNaut miles runAvg speedWind from/ knotsBaromVisibWave heightAir tempDewpointWater temp
2016-Jun-26 11:31N 34°54' E 139°57'1410.6
2016-Jun-26 10:10N 35°01' E 140°12'2010.1
2016-Jun-26 08:08N 35°15' E 140°30'811.1
2016-Jun-26 07:25N 35°23' E 140°34'1011.2
2016-Jun-26 06:33N 35°30' E 140°42'1111.2
2016-Jun-26 05:33N 35°38' E 140°51'14 0.3
2016-Jun-24 09:29N 35°26' E 140°42'1311.9
2016-Jun-24 08:23N 35°16' E 140°32'41 8.5
2016-Jun-24 03:33N 35°03' E 139°45'1312.8
2016-Jun-24 02:33N 35°15' E 139°46'1212.6
2016-Jun-24 01:33N 35°27' E 139°41'1 1.1
2016-Jun-24 00:31N 35°27' E 139°40'0 0.0
2016-Jun-23 23:31N 35°27' E 139°40'0 0.0
2016-Jun-23 22:31N 35°27' E 139°40'2 2.3
2016-Jun-23 21:32N 35°26' E 139°42'0 0.0
2016-Jun-23 20:32N 35°26' E 139°42'0 0.1
2016-Jun-23 19:32N 35°26' E 139°42'0 0.0
2016-Jun-23 18:32N 35°26' E 139°42'0 0.1
2016-Jun-23 17:32N 35°26' E 139°42'0 0.0
2016-Jun-23 16:32N 35°26' E 139°42'0 0.0
2016-Jun-23 15:33N 35°26' E 139°42'10 9.6
2016-Jun-23 14:33N 35°17' E 139°46'1111.1
2016-Jun-23 13:33N 35°06' E 139°45'17 7.7
2016-Jun-23 11:22N 34°57' E 140°03'4311.2
2016-Jun-23 07:32N 35°26' E 140°41'2 0.1
2016-Jun-22 11:33N 35°28' E 140°43'1711.7
2016-Jun-22 10:08N 35°14' E 140°32'2111.5
2016-Jun-22 08:20N 35°00' E 140°13'1011.5
2016-Jun-22 07:28N 34°55' E 140°02'13 9.8
2016-Jun-22 06:09N 34°55' E 139°46'7 9.5
2016-Jun-22 05:28N 35°02' E 139°44'1011.4
2016-Jun-22 04:33N 35°12' E 139°46'1110.6
2016-Jun-22 03:33N 35°22' E 139°42'4 3.5
2016-Jun-22 02:31N 35°25' E 139°41'0 0.0
2016-Jun-22 01:31N 35°25' E 139°41'0 0.0
2016-Jun-22 00:31N 35°25' E 139°41'0 0.0
2016-Jun-21 23:31N 35°25' E 139°41'0 0.0
2016-Jun-21 22:31N 35°25' E 139°41'0 0.0
2016-Jun-21 21:31N 35°25' E 139°41'0 0.0
2016-Jun-21 20:31N 35°25' E 139°41'0 0.0
2016-Jun-21 19:31N 35°25' E 139°41'0 0.0
2016-Jun-21 18:31N 35°25' E 139°41'0 0.0
2016-Jun-21 17:31N 35°25' E 139°41'0 0.0
2016-Jun-21 16:31N 35°25' E 139°41'0 0.0
2016-Jun-21 15:31N 35°25' E 139°41'0 0.0
2016-Jun-21 14:31N 35°25' E 139°41'0 0.0
2016-Jun-21 13:31N 35°25' E 139°41'0 0.0
2016-Jun-21 12:31N 35°25' E 139°41'0 0.0
2016-Jun-21 11:31N 35°25' E 139°41'0 0.0
2016-Jun-21 10:33N 35°25' E 139°41'7 6.9
2016-Jun-21 09:34N 35°29' E 139°48'1211.7
2016-Jun-21 08:34N 35°33' E 140°02'4 4.4
2016-Jun-21 07:33N 35°33' E 140°07'0 0.0
2016-Jun-21 05:33N 35°33' E 140°07'0 0.0
2016-Jun-21 04:33N 35°33' E 140°07'0 0.0
2016-Jun-21 03:33N 35°33' E 140°07'0 0.0
2016-Jun-21 02:31N 35°33' E 140°07'0 0.0
2016-Jun-21 01:33N 35°33' E 140°07'0 0.0
2016-Jun-21 00:33N 35°33' E 140°07'0 0.0
2016-Jun-20 23:33N 35°33' E 140°07'0 0.0
2016-Jun-20 22:33N 35°33' E 140°07'0 0.0
2016-Jun-20 21:18N 35°33' E 140°07'0 0.0
2016-Jun-20 20:30N 35°33' E 140°07'0 0.0
2016-Jun-20 19:24N 35°33' E 140°07'0 0.0
2016-Jun-20 18:30N 35°33' E 140°07'0 0.0
2016-Jun-20 17:30N 35°33' E 140°07'0 0.0
2016-Jun-20 16:30N 35°33' E 140°07'0 0.0
2016-Jun-20 15:30N 35°33' E 140°07'0 0.0
2016-Jun-20 14:30N 35°33' E 140°07'0 0.0
2016-Jun-20 13:30N 35°33' E 140°07'0 0.0
2016-Jun-20 12:24N 35°33' E 140°07'0 0.0
2016-Jun-20 11:30N 35°33' E 140°07'0 0.0
2016-Jun-20 10:30N 35°33' E 140°07'0 0.0
2016-Jun-20 09:30N 35°33' E 140°07'0 0.0
2016-Jun-20 08:30N 35°33' E 140°07'0 0.0
2016-Jun-20 07:24N 35°33' E 140°07'0 0.0
2016-Jun-20 06:33N 35°33' E 140°07'9 9.2
2016-Jun-20 05:33N 35°30' E 139°56'1211.7
2016-Jun-20 04:33N 35°22' E 139°45'1211.6
2016-Jun-20 03:31N 35°10' E 139°47'  

Dump ship's entire track history